KBRO/BRO METAR and TAF weather

Enter ICAO airport designator
Station Type Date Time Source
KBRO METAR 2020/07/15 06:53 UTC NOAA

KBRO 150653Z AUTO 15009KT 10SM SCT022 BKN029 28/25 A2994 RMK AO2 SLP138 T02830250


Station Type Date Time Source
KBRO Decoded METAR 2020/07/15 06:53 UTC NOAA

BROWNSVILLE/SOUTH PADRE IS, TX, United States (KBRO) 25-54N 97-25W 5M
Jul 15, 2020 - 02:53 AM EDT / 2020.07.15 0653 UTC
Wind: from the SSE (150 degrees) at 10 MPH (9 KT):0
Visibility: 10 mile(s):0
Sky conditions: mostly cloudy
Temperature: 82.9 F (28.3 C)
Dew Point: 77.0 F (25.0 C)
Relative Humidity: 82%
Pressure (altimeter): 29.94 in. Hg (1013 hPa)
ob: KBRO 150653Z AUTO 15009KT 10SM SCT022 BKN029 28/25 A2994 RMK AO2 SLP138 T02830250
cycle: 7

Station Type Date Time Source
KBRO TAF 2020/07/15 06:33 UTC NOAA

TAF KBRO 150531Z 1506/1606 15008KT P6SM FEW025
FM151400 16013KT P6SM FEW250
FM151600 16018G25KT P6SM SCT250
FM160100 14012KT P6SM FEW250

Example: see airport list